createdAt,value
2023-03-30T00:02:06.828Z,100389.78
2023-03-30T00:04:37.683Z,100385.41
2023-03-30T00:07:08.471Z,100381.75
2023-03-30T00:09:42.537Z,100300.88
2023-03-30T00:12:11.191Z,100305.22
2023-03-30T00:14:39.319Z,100385.41
2023-03-30T00:17:08.624Z,100391.75
2023-03-30T00:19:38.122Z,100384.56
2023-03-30T00:22:09.417Z,100197.53
2023-03-30T00:24:38.267Z,100366.81
2023-03-30T00:27:06.957Z,100196.16
2023-03-30T00:29:35.397Z,100284.00
2023-03-30T00:32:03.680Z,100364.28
2023-03-30T00:34:31.846Z,100352.72
2023-03-30T00:36:59.968Z,100354.28
2023-03-30T00:39:29.508Z,100356.97
2023-03-30T00:41:57.652Z,100298.38
2023-03-30T00:45:14.671Z,100346.25
2023-03-30T00:47:47.429Z,100349.91
2023-03-30T00:50:17.015Z,100345.53
2023-03-30T00:52:47.578Z,100343.72
2023-03-30T00:55:17.154Z,100257.50
2023-03-30T00:57:45.701Z,100339.19
2023-03-30T01:00:14.837Z,100337.50
2023-03-30T01:02:48.826Z,100327.66
2023-03-30T01:05:17.450Z,100319.78
2023-03-30T01:07:49.907Z,100324.13
2023-03-30T01:10:20.372Z,100321.72
2023-03-30T01:12:49.442Z,100320.59
2023-03-30T01:15:18.163Z,100321.44
2023-03-30T01:18:08.931Z,100326.81
2023-03-30T01:21:10.224Z,100321.44
2023-03-30T01:24:28.873Z,100321.44
2023-03-30T01:27:02.128Z,100325.13
2023-03-30T01:29:54.841Z,100327.78
2023-03-30T01:32:55.825Z,100238.94
2023-03-30T01:35:46.456Z,100277.53
2023-03-30T01:39:02.337Z,100309.06
2023-03-30T01:41:37.668Z,100313.69
2023-03-30T01:44:17.442Z,100149.16
2023-03-30T01:46:49.533Z,100321.72
2023-03-30T01:49:25.260Z,100219.25
2023-03-30T01:52:02.670Z,100198.69
2023-03-30T01:54:35.826Z,100104.56
2023-03-30T01:57:10.885Z,100285.94
2023-03-30T01:59:42.795Z,100165.75
2023-03-30T02:02:14.886Z,100273.56
2023-03-30T02:04:46.575Z,100278.91
2023-03-30T02:07:18.560Z,100274.41
2023-03-30T02:09:50.446Z,100273.56
2023-03-30T02:12:21.808Z,100269.88
2023-03-30T02:14:50.730Z,100269.06
2023-03-30T02:17:23.170Z,100087.84
2023-03-30T02:19:52.222Z,100268.19
2023-03-30T02:22:21.646Z,100257.50
2023-03-30T02:24:51.903Z,100166.59
2023-03-30T02:27:23.067Z,100248.47
2023-03-30T02:29:51.256Z,100250.16
2023-03-30T02:32:22.232Z,100244.81
2023-03-30T02:35:09.151Z,100251.00
2023-03-30T02:37:58.236Z,100239.47
2023-03-30T02:40:37.872Z,100243.97
2023-03-30T02:43:24.591Z,100236.06
2023-03-30T02:46:05.659Z,100230.72
2023-03-30T02:48:41.212Z,100225.38
2023-03-30T02:51:32.084Z,100230.72
2023-03-30T02:54:08.106Z,100225.38
2023-03-30T02:56:44.775Z,100222.69
2023-03-30T02:59:19.003Z,100220.03
2023-03-30T03:01:52.775Z,100204.53
2023-03-30T03:04:23.445Z,100209.31
2023-03-30T03:06:55.858Z,100209.31
2023-03-30T03:09:26.622Z,100214.66
2023-03-30T03:11:54.746Z,100197.94
2023-03-30T03:14:26.652Z,100194.94
2023-03-30T03:16:55.750Z,100193.25
2023-03-30T03:19:23.960Z,100075.13
2023-03-30T03:21:52.120Z,100192.41
2023-03-30T03:24:20.304Z,100187.91
2023-03-30T03:26:48.745Z,100179.19
2023-03-30T03:29:16.924Z,100187.91
2023-03-30T03:31:46.471Z,100184.22
2023-03-30T03:34:14.629Z,100175.22
2023-03-30T03:36:43.736Z,100168.16
2023-03-30T03:39:11.977Z,100150.34
2023-03-30T03:41:41.031Z,100175.22
2023-03-30T03:44:09.158Z,100165.34
2023-03-30T03:46:37.428Z,100162.50
2023-03-30T03:49:07.348Z,100158.16
2023-03-30T03:51:36.056Z,100142.09
2023-03-30T03:54:04.360Z,100147.47
2023-03-30T03:56:33.486Z,99972.50
2023-03-30T03:59:03.613Z,100144.78
2023-03-30T04:01:32.233Z,100143.94
2023-03-30T04:04:00.602Z,100131.41
2023-03-30T04:06:30.335Z,100134.94
2023-03-30T04:08:58.581Z,100125.03
2023-03-30T04:11:27.479Z,100124.22
2023-03-30T04:13:55.737Z,100141.09
2023-03-30T04:16:23.905Z,100132.41
2023-03-30T04:18:52.040Z,100125.34
2023-03-30T04:21:20.444Z,100137.44
2023-03-30T04:23:50.282Z,100125.91
2023-03-30T04:26:18.692Z,100025.47
2023-03-30T04:28:47.222Z,100117.00
2023-03-30T04:31:15.392Z,100113.38
2023-03-30T04:33:51.984Z,100099.97
2023-03-30T04:36:20.952Z,99923.16
2023-03-30T04:38:59.083Z,100105.47
2023-03-30T04:41:33.554Z,100110.69
2023-03-30T04:44:03.742Z,100098.28
2023-03-30T04:46:31.948Z,100088.41
2023-03-30T04:49:00.868Z,100087.56
2023-03-30T04:51:29.939Z,100076.03
2023-03-30T04:53:59.699Z,100067.31
2023-03-30T04:56:27.989Z,100073.22
2023-03-30T04:58:56.232Z,100066.16
2023-03-30T05:01:24.948Z,100066.16
2023-03-30T05:03:53.117Z,99966.13
2023-03-30T05:06:21.704Z,100053.78
2023-03-30T05:08:49.943Z,100070.97
2023-03-30T05:11:19.536Z,100048.41
2023-03-30T05:13:47.662Z,100042.34
2023-03-30T05:16:16.248Z,100045.75
2023-03-30T05:18:44.783Z,100048.41
2023-03-30T05:21:13.002Z,100048.41
2023-03-30T05:23:42.678Z,100048.41
2023-03-30T05:26:10.988Z,100055.44
2023-03-30T05:28:40.611Z,100060.78
2023-03-30T05:31:08.805Z,100063.47
2023-03-30T05:33:36.986Z,100047.25
2023-03-30T05:36:06.224Z,100041.91
2023-03-30T05:38:34.461Z,100035.75
2023-03-30T05:41:02.736Z,100035.75
2023-03-30T05:43:31.090Z,100028.69
2023-03-30T05:46:02.729Z,100017.97
2023-03-30T05:48:31.315Z,100017.97
2023-03-30T05:51:02.127Z,100025.31
2023-03-30T05:53:30.684Z,100001.91
2023-03-30T05:55:59.030Z,100004.72
2023-03-30T05:58:27.620Z,99996.56
2023-03-30T06:01:00.629Z,99919.38
2023-03-30T06:03:28.972Z,100002.75
2023-03-30T06:05:57.250Z,100003.63
2023-03-30T06:08:27.080Z,100007.25
2023-03-30T06:10:56.443Z,100002.91
2023-03-30T06:13:25.325Z,99843.53
2023-03-30T06:15:53.510Z,99998.56
2023-03-30T06:18:23.219Z,99998.56
2023-03-30T06:20:51.976Z,99996.56
2023-03-30T06:23:20.257Z,99821.19
2023-03-30T06:25:53.006Z,99984.72
2023-03-30T06:28:21.397Z,99888.34
2023-03-30T06:30:49.894Z,99982.34
2023-03-30T06:33:18.681Z,99897.97
2023-03-30T06:35:49.038Z,99979.38
2023-03-30T06:38:18.040Z,99976.84
2023-03-30T06:40:46.897Z,99976.84
2023-03-30T06:43:18.621Z,99976.84
2023-03-30T06:45:51.761Z,99897.97
2023-03-30T06:48:22.647Z,99887.28
2023-03-30T06:50:52.605Z,99885.59
2023-03-30T06:53:21.050Z,99958.25
2023-03-30T06:55:53.051Z,99869.84
2023-03-30T06:58:21.260Z,99949.53
2023-03-30T07:00:50.238Z,99862.53
2023-03-30T07:03:20.025Z,99944.03
2023-03-30T07:05:49.476Z,99874.91
2023-03-30T07:08:19.441Z,99941.34
2023-03-30T07:10:48.733Z,99939.69
2023-03-30T07:13:17.749Z,99935.16
2023-03-30T07:15:47.066Z,99925.28
2023-03-30T07:18:15.588Z,99937.66
2023-03-30T07:20:45.477Z,99928.97
2023-03-30T07:23:14.975Z,99920.78
2023-03-30T07:25:45.962Z,99923.63
2023-03-30T07:28:14.597Z,99925.28
2023-03-30T07:30:42.795Z,99766.34
2023-03-30T07:33:11.686Z,99923.63
2023-03-30T07:35:45.084Z,99919.09
2023-03-30T07:38:13.597Z,99753.38
2023-03-30T07:40:41.722Z,99756.94
2023-03-30T07:43:11.784Z,99921.91
2023-03-30T07:45:39.977Z,99918.25
2023-03-30T07:48:08.251Z,99751.59
2023-03-30T07:50:36.630Z,99918.25
2023-03-30T07:53:04.984Z,99914.59
2023-03-30T07:55:33.631Z,99905.84
2023-03-30T07:58:01.782Z,99907.56
2023-03-30T08:00:32.698Z,99907.56
2023-03-30T08:03:01.075Z,99902.22
2023-03-30T08:05:29.369Z,99902.22
2023-03-30T08:07:57.485Z,99903.19
2023-03-30T08:10:25.766Z,99788.47
2023-03-30T08:12:53.923Z,99907.56
2023-03-30T08:15:22.271Z,99888.97
2023-03-30T08:17:51.961Z,99910.09
2023-03-30T08:20:20.337Z,99882.47
2023-03-30T08:22:49.652Z,99884.44
2023-03-30T08:25:18.192Z,99726.25
2023-03-30T08:27:46.594Z,99893.16
2023-03-30T08:30:16.628Z,99891.50
2023-03-30T08:32:44.857Z,99887.81
2023-03-30T08:35:15.070Z,99753.78
2023-03-30T08:37:43.568Z,99881.63
2023-03-30T08:40:12.966Z,99855.88
2023-03-30T08:43:13.249Z,99876.25
2023-03-30T08:45:44.009Z,99873.75
2023-03-30T08:48:18.164Z,99774.19
2023-03-30T08:50:59.710Z,99787.97
2023-03-30T08:53:30.912Z,99778.56
2023-03-30T08:56:07.830Z,99866.72
2023-03-30T08:58:45.498Z,99791.84
2023-03-30T09:01:21.635Z,99851.66
2023-03-30T09:04:03.370Z,99852.31
2023-03-30T09:06:44.962Z,99764.78
2023-03-30T09:09:16.058Z,99842.78
2023-03-30T09:11:44.753Z,99846.16
2023-03-30T09:14:20.937Z,99841.63
2023-03-30T09:16:55.242Z,99739.06
2023-03-30T09:19:28.704Z,99839.94
2023-03-30T09:22:01.150Z,99834.59
2023-03-30T09:24:29.989Z,99824.75
2023-03-30T09:27:03.594Z,99829.25
2023-03-30T09:29:35.891Z,99824.75
2023-03-30T09:32:11.332Z,99813.19
2023-03-30T09:34:45.013Z,99804.16
2023-03-30T09:37:18.753Z,99804.50
2023-03-30T09:39:47.549Z,99806.31
2023-03-30T09:42:26.193Z,99810.34
2023-03-30T09:44:58.188Z,99799.66
2023-03-30T09:47:28.428Z,99798.78
2023-03-30T09:49:58.850Z,99716.44
2023-03-30T09:52:30.077Z,99785.56
2023-03-30T09:54:58.538Z,99782.75
2023-03-30T09:57:29.842Z,99779.09
2023-03-30T10:00:00.282Z,99777.38
2023-03-30T10:02:31.598Z,99766.69
2023-03-30T10:05:05.150Z,99772.03
2023-03-30T10:07:37.857Z,99768.38
2023-03-30T10:10:17.197Z,99768.38
2023-03-30T10:12:46.414Z,99748.94
2023-03-30T10:15:18.489Z,99663.59
2023-03-30T10:17:48.423Z,99748.63
2023-03-30T10:20:28.005Z,99621.41
2023-03-30T10:23:03.230Z,99734.56
2023-03-30T10:25:34.944Z,99745.28
2023-03-30T10:28:04.765Z,99739.09
2023-03-30T10:30:34.833Z,99741.63
2023-03-30T10:33:04.401Z,99729.22
2023-03-30T10:35:37.251Z,99724.72
2023-03-30T10:38:10.672Z,99725.03
2023-03-30T10:40:41.992Z,99631.19
2023-03-30T10:43:15.989Z,99717.53
2023-03-30T10:45:48.383Z,99714.84
2023-03-30T10:48:36.317Z,99709.50
2023-03-30T10:51:12.001Z,99707.81
2023-03-30T10:53:49.437Z,99693.44
2023-03-30T10:56:28.774Z,99691.75
2023-03-30T10:59:09.257Z,99683.38
2023-03-30T11:01:48.354Z,99617.84
2023-03-30T11:04:24.232Z,99654.19
2023-03-30T11:06:57.644Z,99681.03
2023-03-30T11:09:31.571Z,99676.03
2023-03-30T11:12:04.621Z,99675.69
2023-03-30T11:14:42.855Z,99585.72
2023-03-30T11:17:17.881Z,99675.69
2023-03-30T11:19:50.698Z,99600.44
2023-03-30T11:22:29.765Z,99670.34
2023-03-30T11:25:02.381Z,99665.31
2023-03-30T11:27:36.638Z,99657.31
2023-03-30T11:30:12.656Z,99653.47
2023-03-30T11:32:49.351Z,99556.63
2023-03-30T11:35:26.228Z,99494.19
2023-03-30T11:37:59.782Z,99630.53
2023-03-30T11:40:34.591Z,99476.72
2023-03-30T11:43:03.235Z,99634.03
2023-03-30T11:45:56.025Z,99622.50
2023-03-30T11:48:52.068Z,99625.00
2023-03-30T11:51:39.804Z,99474.63
2023-03-30T11:54:26.342Z,99619.13
2023-03-30T11:57:07.460Z,99517.81
2023-03-30T11:59:46.612Z,99604.09
2023-03-30T12:02:28.278Z,99613.47
2023-03-30T12:05:02.502Z,99606.44
2023-03-30T12:07:38.760Z,99594.91
2023-03-30T12:10:17.297Z,99595.75
2023-03-30T12:12:49.519Z,99586.03
2023-03-30T12:15:35.830Z,99489.72
2023-03-30T12:18:18.965Z,99580.50
2023-03-30T12:20:53.693Z,99584.19
2023-03-30T12:23:37.880Z,99517.19
2023-03-30T12:26:26.910Z,99577.69
2023-03-30T12:31:52.749Z,99568.97
2023-03-30T12:34:22.659Z,99573.50
2023-03-30T12:36:54.988Z,99493.44
2023-03-30T12:39:31.179Z,99564.44
2023-03-30T12:42:07.015Z,99561.94
2023-03-30T12:44:48.848Z,99573.16
2023-03-30T12:47:38.839Z,99567.50
2023-03-30T12:50:19.404Z,99563.50
2023-03-30T12:53:04.387Z,99559.97
2023-03-30T12:55:45.709Z,99553.63
2023-03-30T12:58:44.467Z,99555.31
2023-03-30T13:01:22.310Z,99461.41
2023-03-30T13:03:53.004Z,99539.25
2023-03-30T13:06:30.033Z,99542.59
2023-03-30T13:09:27.752Z,99359.59
2023-03-30T13:12:29.027Z,99348.91
2023-03-30T13:15:03.691Z,99516.81
2023-03-30T13:17:58.333Z,99511.81
2023-03-30T13:20:32.988Z,99510.16
2023-03-30T13:23:32.713Z,99501.13
2023-03-30T13:26:07.857Z,99495.75
2023-03-30T13:28:56.145Z,99494.75
2023-03-30T13:31:37.602Z,99483.06
2023-03-30T13:34:22.168Z,99481.19
2023-03-30T13:37:01.326Z,99477.72
2023-03-30T13:39:41.131Z,99467.00
2023-03-30T13:42:29.806Z,99383.03
2023-03-30T13:45:07.269Z,99389.97
2023-03-30T13:47:57.560Z,99469.19
2023-03-30T13:50:31.423Z,99456.78
2023-03-30T13:53:02.974Z,99470.69
2023-03-30T13:55:34.174Z,99473.38
2023-03-30T13:58:06.323Z,99484.06
2023-03-30T14:00:48.052Z,99469.69
2023-03-30T14:03:31.879Z,99468.00
2023-03-30T14:06:04.149Z,99468.00
2023-03-30T14:08:38.086Z,99469.69
2023-03-30T14:11:13.468Z,99464.31
2023-03-30T14:13:43.349Z,99464.31
2023-03-30T14:16:15.135Z,99444.94
2023-03-30T14:18:43.884Z,99451.63
2023-03-30T14:21:18.413Z,99447.13
2023-03-30T14:23:52.450Z,99437.56
2023-03-30T14:26:24.654Z,99456.97
2023-03-30T14:28:56.798Z,99435.56
2023-03-30T14:31:27.403Z,99365.56
2023-03-30T14:33:57.071Z,99431.88
2023-03-30T14:36:26.862Z,99421.16
2023-03-30T14:38:57.629Z,99426.50
2023-03-30T14:41:28.162Z,99351.19
2023-03-30T14:43:59.008Z,99418.47
2023-03-30T14:46:40.354Z,99298.97
2023-03-30T14:49:09.881Z,99411.28
2023-03-30T14:52:02.324Z,99400.41
2023-03-30T14:54:31.679Z,99406.78
2023-03-30T14:57:02.291Z,99328.09
2023-03-30T14:59:34.171Z,99407.59
2023-03-30T15:02:08.143Z,99404.75
2023-03-30T15:04:38.802Z,99313.75
2023-03-30T15:07:08.465Z,99312.06
2023-03-30T15:09:40.175Z,99397.75
2023-03-30T15:12:08.840Z,99392.38
2023-03-30T15:14:40.935Z,99327.44
2023-03-30T15:17:21.573Z,99365.63
2023-03-30T15:19:54.261Z,99396.72
2023-03-30T15:22:28.325Z,99271.53
2023-03-30T15:24:59.808Z,99288.31
2023-03-30T15:27:28.212Z,99295.66
2023-03-30T15:29:58.009Z,99376.84
2023-03-30T15:32:35.285Z,99377.66
2023-03-30T15:35:09.420Z,99299.34
2023-03-30T15:37:39.832Z,99368.97
2023-03-30T15:40:28.677Z,99340.19
2023-03-30T15:43:19.006Z,99361.09
2023-03-30T15:45:54.174Z,99367.28
2023-03-30T15:48:25.342Z,99197.63
2023-03-30T15:51:07.018Z,99363.94
2023-03-30T15:53:55.604Z,99355.75
2023-03-30T15:56:28.441Z,99353.25
2023-03-30T15:58:59.587Z,99185.59
2023-03-30T16:01:40.960Z,99353.25
2023-03-30T16:04:09.641Z,99347.88
2023-03-30T16:06:38.148Z,99262.69
2023-03-30T16:09:08.411Z,99347.38
2023-03-30T16:11:37.144Z,99357.25
2023-03-30T16:14:07.226Z,99270.25
2023-03-30T16:16:35.492Z,99336.16
2023-03-30T16:19:04.254Z,99335.34
2023-03-30T16:21:32.499Z,99191.63
2023-03-30T16:24:00.651Z,99269.59
2023-03-30T16:26:30.328Z,99332.66
2023-03-30T16:28:58.433Z,99341.03
2023-03-30T16:31:26.596Z,99330.66
2023-03-30T16:33:54.812Z,99340.19
2023-03-30T16:36:24.835Z,99327.13
2023-03-30T16:38:53.018Z,99322.47
2023-03-30T16:41:23.220Z,99333.16
2023-03-30T16:43:52.821Z,99332.66
2023-03-30T16:46:22.319Z,99337.66
2023-03-30T16:48:51.046Z,99319.09
2023-03-30T16:51:20.144Z,99319.09
2023-03-30T16:53:48.290Z,99322.78
2023-03-30T16:56:18.681Z,99227.41
2023-03-30T16:58:47.691Z,99322.78
2023-03-30T17:01:18.996Z,99321.09
2023-03-30T17:03:47.817Z,99150.53
2023-03-30T17:06:17.195Z,99311.25
2023-03-30T17:08:45.664Z,99317.44
2023-03-30T17:11:14.030Z,99308.72
2023-03-30T17:13:43.249Z,99312.09
2023-03-30T17:16:14.033Z,99310.38
2023-03-30T17:18:43.965Z,99306.06
2023-03-30T17:21:16.493Z,99224.75
2023-03-30T17:23:46.537Z,99127.16
2023-03-30T17:26:14.789Z,99288.00
2023-03-30T17:28:43.511Z,99216.72
2023-03-30T17:31:16.722Z,99296.38
2023-03-30T17:33:46.564Z,99221.75
2023-03-30T17:36:18.971Z,99305.38
2023-03-30T17:38:47.754Z,99300.88
2023-03-30T17:41:20.054Z,99308.06
2023-03-30T17:43:49.302Z,99304.03
2023-03-30T17:46:20.244Z,99302.38
2023-03-30T17:48:51.281Z,99305.22
2023-03-30T17:51:19.670Z,99202.34
2023-03-30T17:53:47.975Z,99304.38
2023-03-30T17:56:16.148Z,99296.50
2023-03-30T17:58:46.100Z,99302.72
2023-03-30T18:01:17.062Z,99301.03
2023-03-30T18:03:45.459Z,99299.34
2023-03-30T18:06:15.082Z,99117.13
2023-03-30T18:08:44.141Z,99225.75
2023-03-30T18:11:12.615Z,99211.38
2023-03-30T18:13:41.055Z,99296.50
2023-03-30T18:16:12.720Z,99297.38
2023-03-30T18:18:40.960Z,99297.38
2023-03-30T18:21:11.644Z,99278.81
2023-03-30T18:23:41.585Z,99189.97
2023-03-30T18:26:13.986Z,99290.31
2023-03-30T18:28:44.307Z,99293.66
2023-03-30T18:31:13.036Z,99287.00
2023-03-30T18:33:41.328Z,99294.69
2023-03-30T18:36:12.938Z,99299.03
2023-03-30T18:38:43.343Z,99288.66
2023-03-30T18:41:13.243Z,99165.56
2023-03-30T18:43:41.400Z,99294.00
2023-03-30T18:46:13.194Z,99203.69
2023-03-30T18:48:41.375Z,99295.34
2023-03-30T18:51:12.097Z,99292.66
2023-03-30T18:53:40.481Z,99290.84
2023-03-30T18:56:13.888Z,99282.81
2023-03-30T18:58:43.042Z,99177.28
2023-03-30T19:01:12.979Z,99282.63
2023-03-30T19:03:42.162Z,99207.03
2023-03-30T19:06:14.047Z,99282.63
2023-03-30T19:08:43.628Z,99288.00
2023-03-30T19:11:15.070Z,99284.28
2023-03-30T19:13:43.186Z,99282.63
2023-03-30T19:16:11.352Z,99281.31
2023-03-30T19:18:40.114Z,99278.94
2023-03-30T19:21:08.389Z,99148.03
2023-03-30T19:23:36.576Z,99208.03
2023-03-30T19:26:04.759Z,99290.50
2023-03-30T19:28:34.551Z,99286.00
2023-03-30T19:31:06.951Z,99092.06
2023-03-30T19:33:35.452Z,99284.28
2023-03-30T19:36:04.001Z,99275.63
2023-03-30T19:38:34.376Z,99276.59
2023-03-30T19:41:04.736Z,99191.66
2023-03-30T19:43:34.608Z,99274.25
2023-03-30T19:46:29.220Z,99283.31
2023-03-30T19:48:57.756Z,99159.91
2023-03-30T19:51:25.962Z,99273.78
2023-03-30T19:53:54.223Z,99262.06
2023-03-30T19:56:23.442Z,99275.09
2023-03-30T19:58:54.849Z,99265.25
2023-03-30T20:01:23.235Z,99256.53
2023-03-30T20:03:52.064Z,99264.91
2023-03-30T20:06:20.754Z,99254.22
2023-03-30T20:08:48.885Z,99255.88
2023-03-30T20:11:16.979Z,99176.94
2023-03-30T20:13:47.423Z,99256.72
2023-03-30T20:16:21.258Z,99152.88
2023-03-30T20:18:50.910Z,99268.25
2023-03-30T20:21:19.446Z,99162.59
2023-03-30T20:23:48.047Z,99257.53
2023-03-30T20:26:19.511Z,99243.84
2023-03-30T20:28:48.178Z,99166.25
2023-03-30T20:31:17.969Z,99255.53
2023-03-30T20:33:46.906Z,99146.53
2023-03-30T20:36:15.059Z,99249.34
2023-03-30T20:38:46.101Z,99248.53
2023-03-30T20:41:14.692Z,99236.47
2023-03-30T20:43:56.470Z,99075.03
2023-03-30T20:46:35.555Z,99246.50
2023-03-30T20:49:03.888Z,99241.13
2023-03-30T20:51:32.163Z,99246.50
2023-03-30T20:54:00.569Z,99054.66
2023-03-30T20:56:29.209Z,99241.97
2023-03-30T20:58:58.093Z,99237.47
2023-03-30T21:01:29.643Z,99241.81
2023-03-30T21:04:03.920Z,99228.09
2023-03-30T21:06:33.272Z,99126.84
2023-03-30T21:09:03.237Z,99232.47
2023-03-30T21:11:34.556Z,99233.78
2023-03-30T21:14:03.129Z,99226.78
2023-03-30T21:16:32.872Z,99234.81
2023-03-30T21:19:01.024Z,99230.44
2023-03-30T21:21:29.165Z,99230.44
2023-03-30T21:23:58.269Z,99230.44
2023-03-30T21:26:26.544Z,99116.13
2023-03-30T21:28:54.701Z,99229.44
2023-03-30T21:31:23.097Z,99242.31
2023-03-30T21:33:52.690Z,99220.41
2023-03-30T21:36:20.896Z,99231.09
2023-03-30T21:38:49.086Z,99227.78
2023-03-30T21:41:18.914Z,99235.81
2023-03-30T21:43:48.356Z,99231.63
2023-03-30T21:46:18.341Z,99226.47
2023-03-30T21:48:47.624Z,99101.09
2023-03-30T21:51:19.472Z,99223.09
2023-03-30T21:53:50.772Z,99218.09
2023-03-30T21:56:20.542Z,99076.38
2023-03-30T21:58:48.783Z,99225.09
2023-03-30T22:01:17.559Z,99222.44
2023-03-30T22:03:46.336Z,99176.97
2023-03-30T22:06:17.477Z,99221.78
2023-03-30T22:08:46.210Z,99219.09
2023-03-30T22:11:16.729Z,99076.06
2023-03-30T22:13:47.476Z,99214.09
2023-03-30T22:16:17.838Z,99217.59
2023-03-30T22:18:47.458Z,99137.16
2023-03-30T22:21:18.920Z,99222.13
2023-03-30T22:23:47.853Z,99111.97
2023-03-30T22:26:16.273Z,99128.47
2023-03-30T22:28:44.810Z,99067.69
2023-03-30T22:31:15.577Z,99209.06
2023-03-30T22:33:44.092Z,99222.47
2023-03-30T22:36:19.213Z,99216.25
2023-03-30T22:38:48.231Z,99016.53
2023-03-30T22:41:16.730Z,99223.44
2023-03-30T22:43:44.922Z,99220.75
2023-03-30T22:46:13.151Z,99219.09
2023-03-30T22:48:42.194Z,99212.75
2023-03-30T22:51:14.521Z,99216.44
2023-03-30T22:53:44.119Z,99213.75
2023-03-30T22:56:12.202Z,99212.09
2023-03-30T22:58:40.325Z,99206.75
2023-03-30T23:01:10.511Z,99204.22
2023-03-30T23:03:39.567Z,99208.75
2023-03-30T23:06:09.319Z,99209.59
2023-03-30T23:08:39.277Z,99214.09
2023-03-30T23:11:09.008Z,99210.41
2023-03-30T23:13:38.275Z,99203.38
2023-03-30T23:16:08.406Z,99199.22
2023-03-30T23:18:43.178Z,99200.72
2023-03-30T23:21:14.210Z,99208.75
2023-03-30T23:23:42.895Z,99113.78
2023-03-30T23:26:12.909Z,99091.72
2023-03-30T23:28:42.540Z,99199.06
2023-03-30T23:31:12.312Z,99207.06
2023-03-30T23:33:41.150Z,99206.06
2023-03-30T23:36:10.674Z,99095.09
2023-03-30T23:38:39.206Z,99143.19
2023-03-30T23:41:07.783Z,99119.63
2023-03-30T23:43:37.486Z,99197.19
2023-03-30T23:46:06.152Z,99201.72
2023-03-30T23:48:34.875Z,99196.22
2023-03-30T23:51:03.238Z,99195.34
2023-03-30T23:53:31.423Z,99200.72
2023-03-30T23:55:59.871Z,99187.34
2023-03-30T23:58:28.237Z,99196.38
